sensor_id;sensor_type;location;lat;lon;timestamp;P1;durP1;ratioP1;P2;durP2;ratioP2
48534;SDS011;34323;52.022;5.686;2022-12-18T00:02:13;57.40;;;20.88;;
48534;SDS011;34323;52.022;5.686;2022-12-18T00:04:39;49.47;;;21.30;;
48534;SDS011;34323;52.022;5.686;2022-12-18T00:07:05;53.58;;;21.02;;
48534;SDS011;34323;52.022;5.686;2022-12-18T00:09:30;55.05;;;22.77;;
48534;SDS011;34323;52.022;5.686;2022-12-18T00:11:56;57.65;;;22.05;;
48534;SDS011;34323;52.022;5.686;2022-12-18T00:14:21;60.15;;;21.55;;
48534;SDS011;34323;52.022;5.686;2022-12-18T00:16:47;55.60;;;20.95;;
48534;SDS011;34323;52.022;5.686;2022-12-18T00:19:13;53.72;;;20.55;;
48534;SDS011;34323;52.022;5.686;2022-12-18T00:21:39;56.95;;;22.10;;
48534;SDS011;34323;52.022;5.686;2022-12-18T00:24:05;43.55;;;19.48;;
48534;SDS011;34323;52.022;5.686;2022-12-18T00:26:32;48.33;;;21.23;;
48534;SDS011;34323;52.022;5.686;2022-12-18T00:29:32;49.50;;;20.48;;
48534;SDS011;34323;52.022;5.686;2022-12-18T00:31:51;48.70;;;18.67;;
48534;SDS011;34323;52.022;5.686;2022-12-18T00:34:16;42.22;;;18.23;;
48534;SDS011;34323;52.022;5.686;2022-12-18T00:36:42;51.90;;;20.02;;
48534;SDS011;34323;52.022;5.686;2022-12-18T00:39:07;41.83;;;18.83;;
48534;SDS011;34323;52.022;5.686;2022-12-18T00:41:34;50.42;;;20.27;;
48534;SDS011;34323;52.022;5.686;2022-12-18T00:44:19;52.33;;;19.60;;
48534;SDS011;34323;52.022;5.686;2022-12-18T00:46:45;50.22;;;19.77;;
48534;SDS011;34323;52.022;5.686;2022-12-18T00:49:11;51.95;;;21.27;;
48534;SDS011;34323;52.022;5.686;2022-12-18T00:51:37;42.40;;;16.77;;
48534;SDS011;34323;52.022;5.686;2022-12-18T00:54:03;40.47;;;18.20;;
48534;SDS011;34323;52.022;5.686;2022-12-18T00:56:29;42.40;;;17.63;;
48534;SDS011;34323;52.022;5.686;2022-12-18T00:58:54;41.42;;;16.98;;
48534;SDS011;34323;52.022;5.686;2022-12-18T01:01:20;43.30;;;17.20;;
48534;SDS011;34323;52.022;5.686;2022-12-18T01:03:46;34.42;;;15.82;;
48534;SDS011;34323;52.022;5.686;2022-12-18T01:06:12;40.65;;;16.38;;
48534;SDS011;34323;52.022;5.686;2022-12-18T01:08:38;41.38;;;17.05;;
48534;SDS011;34323;52.022;5.686;2022-12-18T01:11:08;40.75;;;17.80;;
48534;SDS011;34323;52.022;5.686;2022-12-18T01:13:36;47.53;;;18.90;;
48534;SDS011;34323;52.022;5.686;2022-12-18T01:16:03;43.60;;;18.27;;
48534;SDS011;34323;52.022;5.686;2022-12-18T01:18:28;43.75;;;18.05;;
48534;SDS011;34323;52.022;5.686;2022-12-18T01:20:54;37.55;;;16.90;;
48534;SDS011;34323;52.022;5.686;2022-12-18T01:23:19;36.30;;;16.60;;
48534;SDS011;34323;52.022;5.686;2022-12-18T01:25:45;43.08;;;17.88;;
48534;SDS011;34323;52.022;5.686;2022-12-18T01:28:10;40.88;;;17.00;;
48534;SDS011;34323;52.022;5.686;2022-12-18T01:30:36;42.70;;;16.67;;
48534;SDS011;34323;52.022;5.686;2022-12-18T01:33:03;42.42;;;17.77;;
48534;SDS011;34323;52.022;5.686;2022-12-18T01:35:30;34.40;;;15.20;;
48534;SDS011;34323;52.022;5.686;2022-12-18T01:37:56;42.67;;;17.42;;
48534;SDS011;34323;52.022;5.686;2022-12-18T01:40:21;37.95;;;16.10;;
48534;SDS011;34323;52.022;5.686;2022-12-18T01:42:53;40.20;;;17.13;;
48534;SDS011;34323;52.022;5.686;2022-12-18T01:45:24;36.63;;;16.60;;
48534;SDS011;34323;52.022;5.686;2022-12-18T01:47:53;43.47;;;18.23;;
48534;SDS011;34323;52.022;5.686;2022-12-18T01:50:40;42.55;;;16.90;;
48534;SDS011;34323;52.022;5.686;2022-12-18T01:53:10;35.33;;;16.63;;
48534;SDS011;34323;52.022;5.686;2022-12-18T01:55:42;41.33;;;18.27;;
48534;SDS011;34323;52.022;5.686;2022-12-18T01:58:13;45.80;;;16.00;;
48534;SDS011;34323;52.022;5.686;2022-12-18T02:00:39;38.08;;;18.35;;
48534;SDS011;34323;52.022;5.686;2022-12-18T02:03:04;38.65;;;16.33;;
48534;SDS011;34323;52.022;5.686;2022-12-18T02:05:34;44.80;;;18.10;;
48534;SDS011;34323;52.022;5.686;2022-12-18T02:08:19;36.78;;;16.98;;
48534;SDS011;34323;52.022;5.686;2022-12-18T02:11:20;41.85;;;16.02;;
48534;SDS011;34323;52.022;5.686;2022-12-18T02:16:50;33.47;;;15.85;;
48534;SDS011;34323;52.022;5.686;2022-12-18T02:19:43;38.42;;;16.48;;
48534;SDS011;34323;52.022;5.686;2022-12-18T02:24:59;38.35;;;16.25;;
48534;SDS011;34323;52.022;5.686;2022-12-18T02:27:27;32.87;;;15.27;;
48534;SDS011;34323;52.022;5.686;2022-12-18T02:29:55;29.27;;;14.60;;
48534;SDS011;34323;52.022;5.686;2022-12-18T02:32:25;30.25;;;15.23;;
48534;SDS011;34323;52.022;5.686;2022-12-18T02:34:54;38.53;;;14.50;;
48534;SDS011;34323;52.022;5.686;2022-12-18T02:37:22;33.05;;;15.30;;
48534;SDS011;34323;52.022;5.686;2022-12-18T02:39:49;31.95;;;13.98;;
48534;SDS011;34323;52.022;5.686;2022-12-18T02:42:18;32.95;;;14.95;;
48534;SDS011;34323;52.022;5.686;2022-12-18T02:44:45;26.65;;;13.50;;
48534;SDS011;34323;52.022;5.686;2022-12-18T02:47:13;39.17;;;14.15;;
48534;SDS011;34323;52.022;5.686;2022-12-18T02:52:27;26.52;;;13.98;;
48534;SDS011;34323;52.022;5.686;2022-12-18T02:57:29;34.92;;;16.50;;
48534;SDS011;34323;52.022;5.686;2022-12-18T03:00:11;32.25;;;14.05;;
48534;SDS011;34323;52.022;5.686;2022-12-18T03:03:02;35.95;;;15.40;;
48534;SDS011;34323;52.022;5.686;2022-12-18T03:05:36;31.33;;;13.32;;
48534;SDS011;34323;52.022;5.686;2022-12-18T03:08:07;31.42;;;12.48;;
48534;SDS011;34323;52.022;5.686;2022-12-18T03:10:49;30.92;;;13.80;;
48534;SDS011;34323;52.022;5.686;2022-12-18T03:13:23;26.05;;;12.88;;
48534;SDS011;34323;52.022;5.686;2022-12-18T03:15:53;31.70;;;13.88;;
48534;SDS011;34323;52.022;5.686;2022-12-18T03:18:23;31.73;;;13.00;;
48534;SDS011;34323;52.022;5.686;2022-12-18T03:21:10;31.52;;;15.07;;
48534;SDS011;34323;52.022;5.686;2022-12-18T03:23:43;32.47;;;14.40;;
48534;SDS011;34323;52.022;5.686;2022-12-18T03:28:40;24.15;;;12.30;;
48534;SDS011;34323;52.022;5.686;2022-12-18T03:31:11;31.85;;;14.20;;
48534;SDS011;34323;52.022;5.686;2022-12-18T03:33:41;29.23;;;13.10;;
48534;SDS011;34323;52.022;5.686;2022-12-18T03:36:15;33.47;;;13.90;;
48534;SDS011;34323;52.022;5.686;2022-12-18T03:38:41;26.17;;;12.27;;
48534;SDS011;34323;52.022;5.686;2022-12-18T03:41:13;33.70;;;13.23;;
48534;SDS011;34323;52.022;5.686;2022-12-18T03:44:03;23.08;;;12.75;;
48534;SDS011;34323;52.022;5.686;2022-12-18T03:49:38;24.83;;;12.48;;
48534;SDS011;34323;52.022;5.686;2022-12-18T03:54:41;27.80;;;13.70;;
48534;SDS011;34323;52.022;5.686;2022-12-18T03:57:14;22.73;;;11.90;;
48534;SDS011;34323;52.022;5.686;2022-12-18T03:59:43;30.33;;;13.23;;
48534;SDS011;34323;52.022;5.686;2022-12-18T04:02:12;32.65;;;14.40;;
48534;SDS011;34323;52.022;5.686;2022-12-18T04:04:40;28.83;;;12.43;;
48534;SDS011;34323;52.022;5.686;2022-12-18T04:07:08;22.70;;;11.23;;
48534;SDS011;34323;52.022;5.686;2022-12-18T04:09:34;31.63;;;13.13;;
48534;SDS011;34323;52.022;5.686;2022-12-18T04:12:00;28.20;;;12.30;;
48534;SDS011;34323;52.022;5.686;2022-12-18T04:14:26;25.27;;;11.85;;
48534;SDS011;34323;52.022;5.686;2022-12-18T04:16:52;18.63;;;10.43;;
48534;SDS011;34323;52.022;5.686;2022-12-18T04:19:17;24.73;;;12.68;;
48534;SDS011;34323;52.022;5.686;2022-12-18T04:21:43;26.05;;;12.02;;
48534;SDS011;34323;52.022;5.686;2022-12-18T04:24:08;25.65;;;11.70;;
48534;SDS011;34323;52.022;5.686;2022-12-18T04:26:34;27.13;;;12.35;;
48534;SDS011;34323;52.022;5.686;2022-12-18T04:28:59;22.83;;;11.95;;
48534;SDS011;34323;52.022;5.686;2022-12-18T04:31:25;25.45;;;11.07;;
48534;SDS011;34323;52.022;5.686;2022-12-18T04:33:51;25.08;;;11.40;;
48534;SDS011;34323;52.022;5.686;2022-12-18T04:36:16;23.42;;;10.30;;
48534;SDS011;34323;52.022;5.686;2022-12-18T04:38:42;19.38;;;10.82;;
48534;SDS011;34323;52.022;5.686;2022-12-18T04:41:08;22.83;;;11.18;;
48534;SDS011;34323;52.022;5.686;2022-12-18T04:43:33;22.23;;;10.55;;
48534;SDS011;34323;52.022;5.686;2022-12-18T04:46:02;22.80;;;11.70;;
48534;SDS011;34323;52.022;5.686;2022-12-18T04:48:29;22.98;;;10.70;;
48534;SDS011;34323;52.022;5.686;2022-12-18T04:50:55;22.25;;;11.18;;
48534;SDS011;34323;52.022;5.686;2022-12-18T04:53:20;19.17;;;10.52;;
48534;SDS011;34323;52.022;5.686;2022-12-18T04:55:46;22.33;;;10.93;;
48534;SDS011;34323;52.022;5.686;2022-12-18T04:58:11;17.90;;;8.75;;
48534;SDS011;34323;52.022;5.686;2022-12-18T05:00:37;24.35;;;10.77;;
48534;SDS011;34323;52.022;5.686;2022-12-18T05:03:02;23.15;;;10.02;;
48534;SDS011;34323;52.022;5.686;2022-12-18T05:05:28;18.23;;;9.30;;
48534;SDS011;34323;52.022;5.686;2022-12-18T05:07:54;18.25;;;10.30;;
48534;SDS011;34323;52.022;5.686;2022-12-18T05:10:19;17.23;;;9.90;;
48534;SDS011;34323;52.022;5.686;2022-12-18T05:12:45;25.30;;;11.02;;
48534;SDS011;34323;52.022;5.686;2022-12-18T05:15:26;17.42;;;9.93;;
48534;SDS011;34323;52.022;5.686;2022-12-18T05:17:53;18.92;;;10.02;;
48534;SDS011;34323;52.022;5.686;2022-12-18T05:20:18;20.13;;;9.63;;
48534;SDS011;34323;52.022;5.686;2022-12-18T05:22:44;19.20;;;9.40;;
48534;SDS011;34323;52.022;5.686;2022-12-18T05:25:10;20.35;;;8.48;;
48534;SDS011;34323;52.022;5.686;2022-12-18T05:27:35;15.02;;;9.13;;
48534;SDS011;34323;52.022;5.686;2022-12-18T05:30:01;21.58;;;9.98;;
48534;SDS011;34323;52.022;5.686;2022-12-18T05:32:26;17.90;;;9.27;;
48534;SDS011;34323;52.022;5.686;2022-12-18T05:34:52;20.92;;;9.13;;
48534;SDS011;34323;52.022;5.686;2022-12-18T05:37:18;18.23;;;9.15;;
48534;SDS011;34323;52.022;5.686;2022-12-18T05:39:43;13.88;;;8.32;;
48534;SDS011;34323;52.022;5.686;2022-12-18T05:42:09;23.35;;;9.18;;
48534;SDS011;34323;52.022;5.686;2022-12-18T05:44:34;19.95;;;9.10;;
48534;SDS011;34323;52.022;5.686;2022-12-18T05:47:00;20.63;;;10.15;;
48534;SDS011;34323;52.022;5.686;2022-12-18T05:49:26;17.77;;;9.38;;
48534;SDS011;34323;52.022;5.686;2022-12-18T05:51:51;14.75;;;8.77;;
48534;SDS011;34323;52.022;5.686;2022-12-18T05:54:17;17.85;;;8.88;;
48534;SDS011;34323;52.022;5.686;2022-12-18T05:56:42;17.00;;;9.05;;
48534;SDS011;34323;52.022;5.686;2022-12-18T05:59:08;26.77;;;8.90;;
48534;SDS011;34323;52.022;5.686;2022-12-18T06:01:34;17.58;;;7.88;;
48534;SDS011;34323;52.022;5.686;2022-12-18T06:04:00;16.02;;;8.27;;
48534;SDS011;34323;52.022;5.686;2022-12-18T06:06:26;16.48;;;8.25;;
48534;SDS011;34323;52.022;5.686;2022-12-18T06:08:52;17.05;;;8.13;;
48534;SDS011;34323;52.022;5.686;2022-12-18T06:11:20;15.55;;;8.23;;
48534;SDS011;34323;52.022;5.686;2022-12-18T06:13:51;15.80;;;7.70;;
48534;SDS011;34323;52.022;5.686;2022-12-18T06:16:18;15.20;;;8.15;;
48534;SDS011;34323;52.022;5.686;2022-12-18T06:18:43;16.52;;;7.72;;
48534;SDS011;34323;52.022;5.686;2022-12-18T06:21:09;16.20;;;8.88;;
48534;SDS011;34323;52.022;5.686;2022-12-18T06:23:35;13.48;;;8.27;;
48534;SDS011;34323;52.022;5.686;2022-12-18T06:26:05;17.20;;;9.25;;
48534;SDS011;34323;52.022;5.686;2022-12-18T06:28:34;14.18;;;8.00;;
48534;SDS011;34323;52.022;5.686;2022-12-18T06:31:00;15.00;;;7.00;;
48534;SDS011;34323;52.022;5.686;2022-12-18T06:33:27;17.23;;;8.75;;
48534;SDS011;34323;52.022;5.686;2022-12-18T06:35:53;23.38;;;7.35;;
48534;SDS011;34323;52.022;5.686;2022-12-18T06:38:24;16.17;;;8.30;;
48534;SDS011;34323;52.022;5.686;2022-12-18T06:40:49;17.02;;;9.25;;
48534;SDS011;34323;52.022;5.686;2022-12-18T06:43:15;15.38;;;9.00;;
48534;SDS011;34323;52.022;5.686;2022-12-18T06:45:40;15.60;;;7.20;;
48534;SDS011;34323;52.022;5.686;2022-12-18T06:48:07;13.80;;;7.55;;
48534;SDS011;34323;52.022;5.686;2022-12-18T06:50:32;13.40;;;7.18;;
48534;SDS011;34323;52.022;5.686;2022-12-18T06:52:58;15.70;;;8.05;;
48534;SDS011;34323;52.022;5.686;2022-12-18T06:55:24;14.48;;;7.78;;
48534;SDS011;34323;52.022;5.686;2022-12-18T06:57:50;15.23;;;9.00;;
48534;SDS011;34323;52.022;5.686;2022-12-18T07:00:15;13.07;;;7.38;;
48534;SDS011;34323;52.022;5.686;2022-12-18T07:02:41;16.40;;;8.50;;
48534;SDS011;34323;52.022;5.686;2022-12-18T07:05:07;13.75;;;6.60;;
48534;SDS011;34323;52.022;5.686;2022-12-18T07:07:33;16.05;;;8.77;;
48534;SDS011;34323;52.022;5.686;2022-12-18T07:09:59;14.45;;;8.43;;
48534;SDS011;34323;52.022;5.686;2022-12-18T07:12:26;11.63;;;7.75;;
48534;SDS011;34323;52.022;5.686;2022-12-18T07:14:52;18.35;;;8.63;;
48534;SDS011;34323;52.022;5.686;2022-12-18T07:17:17;15.13;;;8.30;;
48534;SDS011;34323;52.022;5.686;2022-12-18T07:19:43;15.57;;;8.80;;
48534;SDS011;34323;52.022;5.686;2022-12-18T07:22:08;16.30;;;8.65;;
48534;SDS011;34323;52.022;5.686;2022-12-18T07:24:34;15.02;;;8.30;;
48534;SDS011;34323;52.022;5.686;2022-12-18T07:27:00;16.65;;;7.57;;
48534;SDS011;34323;52.022;5.686;2022-12-18T07:29:25;14.27;;;8.18;;
48534;SDS011;34323;52.022;5.686;2022-12-18T07:31:51;14.15;;;8.18;;
48534;SDS011;34323;52.022;5.686;2022-12-18T07:34:16;14.88;;;8.02;;
48534;SDS011;34323;52.022;5.686;2022-12-18T07:36:42;16.15;;;8.80;;
48534;SDS011;34323;52.022;5.686;2022-12-18T07:39:08;17.38;;;9.43;;
48534;SDS011;34323;52.022;5.686;2022-12-18T07:41:35;16.05;;;8.77;;
48534;SDS011;34323;52.022;5.686;2022-12-18T07:44:01;19.75;;;8.88;;
48534;SDS011;34323;52.022;5.686;2022-12-18T07:46:26;19.30;;;8.32;;
48534;SDS011;34323;52.022;5.686;2022-12-18T07:48:52;17.73;;;7.80;;
48534;SDS011;34323;52.022;5.686;2022-12-18T07:51:17;18.17;;;8.15;;
48534;SDS011;34323;52.022;5.686;2022-12-18T07:53:43;20.20;;;9.80;;
48534;SDS011;34323;52.022;5.686;2022-12-18T07:56:09;15.07;;;8.43;;
48534;SDS011;34323;52.022;5.686;2022-12-18T07:58:37;14.93;;;8.38;;
48534;SDS011;34323;52.022;5.686;2022-12-18T08:01:06;18.70;;;8.50;;
48534;SDS011;34323;52.022;5.686;2022-12-18T08:03:36;17.38;;;6.93;;
48534;SDS011;34323;52.022;5.686;2022-12-18T08:06:04;24.35;;;9.18;;
48534;SDS011;34323;52.022;5.686;2022-12-18T08:08:31;15.38;;;8.10;;
48534;SDS011;34323;52.022;5.686;2022-12-18T08:10:57;14.35;;;7.28;;
48534;SDS011;34323;52.022;5.686;2022-12-18T08:13:23;16.70;;;9.25;;
48534;SDS011;34323;52.022;5.686;2022-12-18T08:15:58;17.52;;;9.20;;
48534;SDS011;34323;52.022;5.686;2022-12-18T08:18:26;16.70;;;8.75;;
48534;SDS011;34323;52.022;5.686;2022-12-18T08:20:54;18.45;;;9.38;;
48534;SDS011;34323;52.022;5.686;2022-12-18T08:23:20;16.92;;;9.20;;
48534;SDS011;34323;52.022;5.686;2022-12-18T08:25:46;15.32;;;7.95;;
48534;SDS011;34323;52.022;5.686;2022-12-18T08:28:11;17.35;;;9.55;;
48534;SDS011;34323;52.022;5.686;2022-12-18T08:30:37;15.23;;;8.40;;
48534;SDS011;34323;52.022;5.686;2022-12-18T08:33:03;18.27;;;9.75;;
48534;SDS011;34323;52.022;5.686;2022-12-18T08:35:28;18.65;;;9.02;;
48534;SDS011;34323;52.022;5.686;2022-12-18T08:37:54;17.90;;;8.40;;
48534;SDS011;34323;52.022;5.686;2022-12-18T08:40:20;21.20;;;8.32;;
48534;SDS011;34323;52.022;5.686;2022-12-18T08:42:45;17.63;;;9.18;;
48534;SDS011;34323;52.022;5.686;2022-12-18T08:45:29;19.55;;;7.45;;
48534;SDS011;34323;52.022;5.686;2022-12-18T08:47:55;15.35;;;8.25;;
48534;SDS011;34323;52.022;5.686;2022-12-18T08:50:21;14.00;;;7.50;;
48534;SDS011;34323;52.022;5.686;2022-12-18T08:52:46;15.98;;;8.93;;
48534;SDS011;34323;52.022;5.686;2022-12-18T08:55:12;21.75;;;10.55;;
48534;SDS011;34323;52.022;5.686;2022-12-18T08:57:37;15.82;;;8.60;;
48534;SDS011;34323;52.022;5.686;2022-12-18T09:00:03;15.60;;;8.82;;
48534;SDS011;34323;52.022;5.686;2022-12-18T09:02:29;16.77;;;9.60;;
48534;SDS011;34323;52.022;5.686;2022-12-18T09:04:55;15.75;;;8.30;;
48534;SDS011;34323;52.022;5.686;2022-12-18T09:07:20;22.05;;;10.10;;
48534;SDS011;34323;52.022;5.686;2022-12-18T09:09:46;19.20;;;8.90;;
48534;SDS011;34323;52.022;5.686;2022-12-18T09:12:11;13.25;;;7.25;;
48534;SDS011;34323;52.022;5.686;2022-12-18T09:14:37;14.45;;;8.73;;
48534;SDS011;34323;52.022;5.686;2022-12-18T09:17:03;16.27;;;7.85;;
48534;SDS011;34323;52.022;5.686;2022-12-18T09:19:28;13.82;;;7.05;;
48534;SDS011;34323;52.022;5.686;2022-12-18T09:21:54;14.13;;;7.88;;
48534;SDS011;34323;52.022;5.686;2022-12-18T09:24:19;19.23;;;8.38;;
48534;SDS011;34323;52.022;5.686;2022-12-18T09:26:48;18.17;;;8.52;;
48534;SDS011;34323;52.022;5.686;2022-12-18T09:29:14;15.18;;;8.25;;
48534;SDS011;34323;52.022;5.686;2022-12-18T09:31:40;17.83;;;8.55;;
48534;SDS011;34323;52.022;5.686;2022-12-18T09:34:05;14.85;;;7.10;;
48534;SDS011;34323;52.022;5.686;2022-12-18T09:36:31;17.38;;;8.55;;
48534;SDS011;34323;52.022;5.686;2022-12-18T09:38:57;15.18;;;7.03;;
48534;SDS011;34323;52.022;5.686;2022-12-18T09:43:52;15.07;;;7.55;;
48534;SDS011;34323;52.022;5.686;2022-12-18T09:49:26;12.63;;;7.57;;
48534;SDS011;34323;52.022;5.686;2022-12-18T09:52:05;15.43;;;7.57;;
48534;SDS011;34323;52.022;5.686;2022-12-18T09:54:40;19.27;;;7.88;;
48534;SDS011;34323;52.022;5.686;2022-12-18T09:57:18;14.60;;;8.15;;
48534;SDS011;34323;52.022;5.686;2022-12-18T09:59:48;15.30;;;7.72;;
48534;SDS011;34323;52.022;5.686;2022-12-18T10:02:19;12.40;;;6.82;;
48534;SDS011;34323;52.022;5.686;2022-12-18T10:05:00;14.63;;;7.72;;
48534;SDS011;34323;52.022;5.686;2022-12-18T10:07:30;13.88;;;7.63;;
48534;SDS011;34323;52.022;5.686;2022-12-18T10:10:06;16.35;;;7.22;;
48534;SDS011;34323;52.022;5.686;2022-12-18T10:15:28;13.48;;;7.40;;
48534;SDS011;34323;52.022;5.686;2022-12-18T10:18:19;15.52;;;7.18;;
48534;SDS011;34323;52.022;5.686;2022-12-18T10:21:10;16.83;;;8.07;;
48534;SDS011;34323;52.022;5.686;2022-12-18T10:23:47;15.30;;;7.70;;
48534;SDS011;34323;52.022;5.686;2022-12-18T10:26:36;13.02;;;7.93;;
48534;SDS011;34323;52.022;5.686;2022-12-18T10:29:03;19.90;;;8.50;;
48534;SDS011;34323;52.022;5.686;2022-12-18T10:31:36;14.50;;;7.45;;
48534;SDS011;34323;52.022;5.686;2022-12-18T10:34:01;15.25;;;6.35;;
48534;SDS011;34323;52.022;5.686;2022-12-18T10:36:27;16.02;;;7.65;;
48534;SDS011;34323;52.022;5.686;2022-12-18T10:38:52;14.77;;;8.07;;
48534;SDS011;34323;52.022;5.686;2022-12-18T10:43:44;15.25;;;7.07;;
48534;SDS011;34323;52.022;5.686;2022-12-18T10:51:04;14.68;;;7.68;;
48534;SDS011;34323;52.022;5.686;2022-12-18T10:53:32;18.25;;;7.10;;
48534;SDS011;34323;52.022;5.686;2022-12-18T10:56:00;13.13;;;7.22;;
48534;SDS011;34323;52.022;5.686;2022-12-18T11:03:41;13.65;;;7.20;;
48534;SDS011;34323;52.022;5.686;2022-12-18T11:06:13;13.23;;;7.03;;
48534;SDS011;34323;52.022;5.686;2022-12-18T11:08:41;17.13;;;8.07;;
48534;SDS011;34323;52.022;5.686;2022-12-18T11:11:15;14.38;;;6.57;;
48534;SDS011;34323;52.022;5.686;2022-12-18T11:13:51;13.10;;;7.38;;
48534;SDS011;34323;52.022;5.686;2022-12-18T11:16:37;14.43;;;6.97;;
48534;SDS011;34323;52.022;5.686;2022-12-18T11:21:44;15.10;;;7.47;;
48534;SDS011;34323;52.022;5.686;2022-12-18T11:24:21;12.23;;;6.97;;
48534;SDS011;34323;52.022;5.686;2022-12-18T11:26:56;12.10;;;6.90;;
48534;SDS011;34323;52.022;5.686;2022-12-18T11:29:31;14.23;;;7.15;;
48534;SDS011;34323;52.022;5.686;2022-12-18T11:32:46;13.52;;;7.15;;
48534;SDS011;34323;52.022;5.686;2022-12-18T11:34:55;15.43;;;7.78;;
48534;SDS011;34323;52.022;5.686;2022-12-18T11:37:26;16.08;;;8.10;;
48534;SDS011;34323;52.022;5.686;2022-12-18T11:39:58;14.48;;;7.00;;
48534;SDS011;34323;52.022;5.686;2022-12-18T11:45:29;13.30;;;6.95;;
48534;SDS011;34323;52.022;5.686;2022-12-18T11:48:04;16.58;;;6.68;;
48534;SDS011;34323;52.022;5.686;2022-12-18T11:53:20;16.95;;;8.35;;
48534;SDS011;34323;52.022;5.686;2022-12-18T12:03:59;14.25;;;7.65;;
48534;SDS011;34323;52.022;5.686;2022-12-18T12:15:48;29.77;;;8.63;;
48534;SDS011;34323;52.022;5.686;2022-12-18T12:18:42;20.88;;;8.35;;
48534;SDS011;34323;52.022;5.686;2022-12-18T12:21:35;16.35;;;8.07;;
48534;SDS011;34323;52.022;5.686;2022-12-18T12:24:16;13.68;;;7.75;;
48534;SDS011;34323;52.022;5.686;2022-12-18T12:40:39;13.85;;;8.05;;
48534;SDS011;34323;52.022;5.686;2022-12-18T12:46:05;18.45;;;7.43;;
48534;SDS011;34323;52.022;5.686;2022-12-18T12:51:21;18.23;;;9.68;;
48534;SDS011;34323;52.022;5.686;2022-12-18T12:53:53;15.40;;;7.95;;
48534;SDS011;34323;52.022;5.686;2022-12-18T12:56:21;13.35;;;7.45;;
48534;SDS011;34323;52.022;5.686;2022-12-18T12:58:55;19.25;;;8.52;;
48534;SDS011;34323;52.022;5.686;2022-12-18T13:01:49;15.07;;;7.85;;
48534;SDS011;34323;52.022;5.686;2022-12-18T13:04:36;17.02;;;7.60;;
48534;SDS011;34323;52.022;5.686;2022-12-18T13:07:30;13.95;;;7.45;;
48534;SDS011;34323;52.022;5.686;2022-12-18T13:15:37;14.73;;;8.43;;
48534;SDS011;34323;52.022;5.686;2022-12-18T13:18:14;17.92;;;8.23;;
48534;SDS011;34323;52.022;5.686;2022-12-18T13:20:45;19.02;;;8.38;;
48534;SDS011;34323;52.022;5.686;2022-12-18T13:25:45;16.52;;;8.57;;
48534;SDS011;34323;52.022;5.686;2022-12-18T13:28:12;17.92;;;7.82;;
48534;SDS011;34323;52.022;5.686;2022-12-18T13:30:43;16.35;;;9.10;;
48534;SDS011;34323;52.022;5.686;2022-12-18T13:35:39;13.73;;;7.85;;
48534;SDS011;34323;52.022;5.686;2022-12-18T13:41:00;19.00;;;8.98;;
48534;SDS011;34323;52.022;5.686;2022-12-18T13:43:30;19.88;;;7.63;;
48534;SDS011;34323;52.022;5.686;2022-12-18T13:46:00;19.33;;;9.00;;
48534;SDS011;34323;52.022;5.686;2022-12-18T13:48:29;14.10;;;7.32;;
48534;SDS011;34323;52.022;5.686;2022-12-18T13:50:59;14.00;;;7.43;;
48534;SDS011;34323;52.022;5.686;2022-12-18T13:56:21;20.77;;;9.15;;
48534;SDS011;34323;52.022;5.686;2022-12-18T14:01:57;19.40;;;8.30;;
48534;SDS011;34323;52.022;5.686;2022-12-18T14:04:31;16.70;;;8.80;;
48534;SDS011;34323;52.022;5.686;2022-12-18T14:07:02;18.17;;;8.48;;
48534;SDS011;34323;52.022;5.686;2022-12-18T14:09:34;14.10;;;8.07;;
48534;SDS011;34323;52.022;5.686;2022-12-18T14:12:02;15.82;;;8.82;;
48534;SDS011;34323;52.022;5.686;2022-12-18T14:14:47;16.42;;;7.82;;
48534;SDS011;34323;52.022;5.686;2022-12-18T14:17:15;14.88;;;7.32;;
48534;SDS011;34323;52.022;5.686;2022-12-18T14:19:42;15.20;;;7.70;;
48534;SDS011;34323;52.022;5.686;2022-12-18T14:22:20;14.77;;;8.55;;
48534;SDS011;34323;52.022;5.686;2022-12-18T14:25:38;17.20;;;9.07;;
48534;SDS011;34323;52.022;5.686;2022-12-18T14:27:41;14.20;;;8.02;;
48534;SDS011;34323;52.022;5.686;2022-12-18T14:30:25;16.50;;;7.70;;
48534;SDS011;34323;52.022;5.686;2022-12-18T14:33:05;23.00;;;9.80;;
48534;SDS011;34323;52.022;5.686;2022-12-18T14:40:43;19.02;;;8.88;;
48534;SDS011;34323;52.022;5.686;2022-12-18T14:43:10;16.38;;;9.25;;
48534;SDS011;34323;52.022;5.686;2022-12-18T14:48:16;15.95;;;8.15;;
48534;SDS011;34323;52.022;5.686;2022-12-18T14:50:45;16.67;;;9.38;;
48534;SDS011;34323;52.022;5.686;2022-12-18T14:53:32;18.40;;;8.88;;
48534;SDS011;34323;52.022;5.686;2022-12-18T14:55:59;16.33;;;8.05;;
48534;SDS011;34323;52.022;5.686;2022-12-18T14:58:25;17.05;;;7.90;;
48534;SDS011;34323;52.022;5.686;2022-12-18T15:00:51;19.02;;;8.68;;
48534;SDS011;34323;52.022;5.686;2022-12-18T15:03:18;13.95;;;8.45;;
48534;SDS011;34323;52.022;5.686;2022-12-18T15:05:45;19.02;;;8.35;;
48534;SDS011;34323;52.022;5.686;2022-12-18T15:08:26;20.30;;;9.68;;
48534;SDS011;34323;52.022;5.686;2022-12-18T15:10:55;23.60;;;9.15;;
48534;SDS011;34323;52.022;5.686;2022-12-18T15:13:22;16.20;;;7.68;;
48534;SDS011;34323;52.022;5.686;2022-12-18T15:15:50;15.68;;;8.57;;
48534;SDS011;34323;52.022;5.686;2022-12-18T15:18:21;20.98;;;8.60;;
48534;SDS011;34323;52.022;5.686;2022-12-18T15:21:00;20.55;;;9.00;;
48534;SDS011;34323;52.022;5.686;2022-12-18T15:23:38;17.75;;;8.77;;
48534;SDS011;34323;52.022;5.686;2022-12-18T15:26:11;18.02;;;8.80;;
48534;SDS011;34323;52.022;5.686;2022-12-18T15:28:55;21.58;;;9.60;;
48534;SDS011;34323;52.022;5.686;2022-12-18T15:36:23;29.80;;;8.00;;
48534;SDS011;34323;52.022;5.686;2022-12-18T15:38:49;15.48;;;8.05;;
48534;SDS011;34323;52.022;5.686;2022-12-18T15:41:16;20.92;;;8.45;;
48534;SDS011;34323;52.022;5.686;2022-12-18T15:43:47;16.52;;;9.00;;
48534;SDS011;34323;52.022;5.686;2022-12-18T15:46:21;17.98;;;8.80;;
48534;SDS011;34323;52.022;5.686;2022-12-18T15:48:49;17.08;;;8.35;;
48534;SDS011;34323;52.022;5.686;2022-12-18T15:51:17;18.05;;;10.02;;
48534;SDS011;34323;52.022;5.686;2022-12-18T15:53:51;18.58;;;9.80;;
48534;SDS011;34323;52.022;5.686;2022-12-18T15:56:19;15.68;;;9.00;;
48534;SDS011;34323;52.022;5.686;2022-12-18T15:59:07;19.17;;;8.65;;
48534;SDS011;34323;52.022;5.686;2022-12-18T16:01:36;17.80;;;8.50;;
48534;SDS011;34323;52.022;5.686;2022-12-18T16:04:01;21.42;;;9.85;;
48534;SDS011;34323;52.022;5.686;2022-12-18T16:06:27;17.60;;;8.23;;
48534;SDS011;34323;52.022;5.686;2022-12-18T16:08:52;17.80;;;9.30;;
48534;SDS011;34323;52.022;5.686;2022-12-18T16:11:22;34.08;;;10.13;;
48534;SDS011;34323;52.022;5.686;2022-12-18T16:14:25;26.08;;;9.57;;
48534;SDS011;34323;52.022;5.686;2022-12-18T16:16:57;17.85;;;9.45;;
48534;SDS011;34323;52.022;5.686;2022-12-18T16:19:25;25.02;;;11.13;;
48534;SDS011;34323;52.022;5.686;2022-12-18T16:21:51;20.42;;;10.05;;
48534;SDS011;34323;52.022;5.686;2022-12-18T16:24:21;30.55;;;10.38;;
48534;SDS011;34323;52.022;5.686;2022-12-18T16:26:51;22.13;;;9.88;;
48534;SDS011;34323;52.022;5.686;2022-12-18T16:29:17;21.48;;;10.57;;
48534;SDS011;34323;52.022;5.686;2022-12-18T16:31:44;18.90;;;9.93;;
48534;SDS011;34323;52.022;5.686;2022-12-18T16:34:13;21.38;;;11.02;;
48534;SDS011;34323;52.022;5.686;2022-12-18T16:36:46;25.80;;;9.93;;
48534;SDS011;34323;52.022;5.686;2022-12-18T16:39:11;24.33;;;10.68;;
48534;SDS011;34323;52.022;5.686;2022-12-18T16:41:37;18.58;;;9.48;;
48534;SDS011;34323;52.022;5.686;2022-12-18T16:44:03;22.23;;;10.63;;